ADDS METAR Data INFO
IDs: Format: Raw Decoded Include TAF

Data at: 0254 UTC 21 Oct 2017

KCNK 210155Z AUTO 17016G23KT 10SM FEW044 21/14 A2969 RMK AO2 PK WND 17026/0108 SLP043 T02110144 $
KCNK 210055Z AUTO 16016G25KT 10SM OVC050 22/14 A2969 RMK AO2 PK WND 18032/2357 SLP046 T02170144 $
KCNK 202355Z AUTO 17020G27KT 10SM BKN049 22/14 A2969 RMK AO2 PK WND 17030/2339 SLP045 T02220144 10256 20222 56011 $
KCNK 202255Z AUTO 16019G29KT 10SM CLR 23/14 A2969 RMK AO2 PK WND 17033/2211 SLP044 T02280144 $
KCNK 202155Z AUTO 17017G34KT 10SM FEW048 24/15 A2970 RMK AO2 PK WND 18038/2121 SLP046 T02440150 $
KCNK 202055Z AUTO 17025G36KT 10SM FEW045 25/15 A2973 RMK AO2 PK WND 17036/2052 SLP054 T02500150 56024 $
KCNK 201955Z AUTO 19024G35KT 10SM FEW043 24/16 A2974 RMK AO2 PK WND 18035/1949 SLP060 T02440156 $
KCNK 201855Z AUTO 18020G33KT 10SM CLR 24/16 A2976 RMK AO2 PK WND 16035/1845 SLP065 T02390156 $
KCNK 201755Z AUTO 18022G32KT 10SM CLR 23/15 A2980 RMK AO2 PK WND 18032/1748 SLP080 T02330150 10239 20133 58031 $
KCNK 201655Z AUTO 18019G31KT 10SM CLR 22/14 A2985 RMK AO2 PK WND 17032/1643 SLP096 T02170139 $
KCNK 201555Z AUTO 18018G33KT 10SM CLR 18/13 A2988 RMK AO2 PK WND 19033/1550 SLP110 T01830133 $
KCNK 201455Z AUTO 17018G30KT 10SM CLR 18/13 A2990 RMK AO2 PK WND 17030/1451 SLP114 T01830128 58010 $
KCNK 201355Z AUTO 16014G19KT 10SM CLR 16/12 A2992 RMK AO2 SLP122 T01610122 $
KCNK 201255Z AUTO 16014KT 10SM CLR 13/11 A2992 RMK AO2 SLP124 T01330111 $
KCNK 201155Z AUTO 17018G26KT 10SM CLR 16/11 A2993 RMK AO2 PK WND 18029/1134 SLP124 T01560111 10161 20150 56008 $
KCNK 201055Z AUTO 18020G26KT 10SM CLR 16/11 A2993 RMK AO2 PK WND 18029/1042 SLP126 T01610111 $
KCNK 200955Z AUTO 19018G24KT 10SM CLR 16/11 A2994 RMK AO2 PK WND 18029/0921 SLP126 T01560111 $
KCNK 200855Z AUTO 18018G25KT 10SM CLR 16/12 A2995 RMK AO2 PK WND 17026/0831 SLP130 T01560117 58010 $
KCNK 200755Z AUTO 18018G24KT 10SM CLR 16/12 A2997 RMK AO2 SLP137 T01560117 $
KCNK 200655Z AUTO 18017G23KT 10SM CLR 16/11 A2998 RMK AO2 SLP141 T01560111 $
KCNK 200555Z AUTO 18014G21KT 10SM CLR 16/10 A2998 RMK AO2 SLP142 T01610100 10228 20161 402720050 58000 $
KCNK 200455Z AUTO 18016G22KT 10SM CLR 17/09 A2999 RMK AO2 SLP147 T01720094 $
KCNK 200355Z AUTO 17014KT 10SM CLR 17/09 A2999 RMK AO2 SLP149 T01670089 $
KCNK 200255Z AUTO 18016G23KT 10SM CLR 19/08 A2998 RMK AO2 SLP147 T01940078 51005 $
KCNK 200155Z AUTO 18014KT 10SM CLR 20/08 A2998 RMK AO2 SLP147 T02000083 $
KCNK 200055Z AUTO 18016KT 10SM CLR 21/08 A2998 RMK AO2 SLP148 T02110083 $
KCNK 192355Z AUTO 18014KT 10SM CLR 23/07 A2997 RMK AO2 SLP142 T02280072 10272 20228 56004 $
KCNK 192255Z AUTO 18013KT 10SM CLR 25/09 A2997 RMK AO2 SLP142 T02500089 $
KCNK 192155Z AUTO 17013KT 10SM CLR 27/09 A2997 RMK AO2 SLP142 T02670089 $
KCNK 192055Z AUTO 17015KT 10SM CLR 27/09 A2998 RMK AO2 SLP144 T02720094 56023 $
KCNK 191955Z AUTO 17011KT 10SM CLR 27/11 A2999 RMK AO2 SLP148 T02670106 $
KCNK 191855Z AUTO 16007KT 10SM CLR 25/12 A3002 RMK AO2 SLP159 T02500117 $
KCNK 191755Z AUTO 19008KT 10SM CLR 23/12 A3005 RMK AO2 SLP168 T02330117 10233 20050 58006 $
KCNK 191655Z AUTO 19006KT 10SM CLR 20/12 A3007 RMK AO2 SLP175 T02000122 $
KCNK 191555Z AUTO 19004KT 10SM CLR 18/12 A3007 RMK AO2 SLP177 T01780122 $
KCNK 191455Z AUTO 00000KT 10SM CLR 12/11 A3007 RMK AO2 SLP178 T01220106 53012 $